createdAt,value
2022-09-26T00:06:08.295Z,10.85
2022-09-26T00:15:45.166Z,10.81
2022-09-26T00:25:21.991Z,10.79
2022-09-26T00:34:58.973Z,10.78
2022-09-26T00:44:35.980Z,10.76
2022-09-26T00:54:13.035Z,10.69
2022-09-26T01:03:50.191Z,10.66
2022-09-26T01:13:27.524Z,10.63
2022-09-26T01:23:04.497Z,10.6
2022-09-26T01:42:18.129Z,10.6
2022-09-26T01:51:55.029Z,10.54
2022-09-26T02:01:32.336Z,10.51
2022-09-26T02:11:09.398Z,10.48
2022-09-26T02:20:46.490Z,10.52
2022-09-26T02:30:23.570Z,10.51
2022-09-26T02:40:00.667Z,10.46
2022-09-26T02:49:37.759Z,10.42
2022-09-26T02:59:15.141Z,10.26
2022-09-26T03:08:51.722Z,9.91
2022-09-26T03:18:27.595Z,9.58
2022-09-26T03:28:03.811Z,9.21
2022-09-26T03:37:40.482Z,8.88
2022-09-26T03:47:16.968Z,8.68
2022-09-26T03:56:53.788Z,8.48
2022-09-26T04:06:30.638Z,8.23
2022-09-26T04:16:06.971Z,7.97
2022-09-26T04:35:20.090Z,7.54
2022-09-26T04:44:56.790Z,7.28
2022-09-26T04:54:33.998Z,7.14
2022-09-26T05:04:10.849Z,7.02
2022-09-26T05:13:52.507Z,6.92
2022-09-26T05:33:00.973Z,6.77
2022-09-26T05:42:37.947Z,6.91
2022-09-26T05:52:14.922Z,7.14
2022-09-26T06:01:52.406Z,7.23
2022-09-26T06:11:29.466Z,7.55
2022-09-26T06:30:43.657Z,8.22
2022-09-26T06:40:21.263Z,8.49
2022-09-26T06:49:59.221Z,8.84
2022-09-26T06:59:36.992Z,9.08
2022-09-26T07:09:14.200Z,9.34
2022-09-26T07:18:51.678Z,9.55
2022-09-26T07:28:29.022Z,9.72
2022-09-26T07:38:05.852Z,10.09
2022-09-26T07:47:42.799Z,10.28
2022-09-26T07:57:20.375Z,10.67
2022-09-26T08:06:57.483Z,11.14
2022-09-26T08:16:35.319Z,11.51
2022-09-26T08:26:13.131Z,11.94
2022-09-26T08:35:51.359Z,12.49
2022-09-26T08:45:30.832Z,13.25
2022-09-26T08:55:12.177Z,13.74
2022-09-26T09:04:53.739Z,13.21
2022-09-26T09:14:26.970Z,13.97
2022-09-26T09:24:06.551Z,14.76
2022-09-26T09:43:25.889Z,14.86
2022-09-26T09:53:03.989Z,15.07
2022-09-26T10:02:40.740Z,15.05
2022-09-26T10:12:17.305Z,15.7
2022-09-26T10:22:20.651Z,16.4
2022-09-26T10:31:58.672Z,17.1
2022-09-26T10:41:46.213Z,17.69
2022-09-26T10:51:10.771Z,17.2
2022-09-26T11:00:46.966Z,17.47
2022-09-26T11:10:24.723Z,17.14
2022-09-26T11:20:15.223Z,17.13
2022-09-26T11:29:58.018Z,17.71
2022-09-26T11:39:16.177Z,18.08
2022-09-26T11:49:08.754Z,18.53
2022-09-26T11:58:50.294Z,18.5
2022-09-26T12:08:31.439Z,19.17
2022-09-26T12:17:43.975Z,17.6
2022-09-26T12:27:17.412Z,18.03
2022-09-26T12:36:44.930Z,16.98
2022-09-26T12:46:15.203Z,16.84
2022-09-26T12:55:45.339Z,16.77
2022-09-26T13:05:24.994Z,16.15
2022-09-26T13:14:59.898Z,16.25
2022-09-26T13:24:33.873Z,15.84
2022-09-26T13:34:10.124Z,15.11
2022-09-26T13:43:57.238Z,16.71
2022-09-26T13:53:54.435Z,18.3
2022-09-26T14:03:34.055Z,17.55
2022-09-26T14:13:20.082Z,20.21
2022-09-26T14:22:46.217Z,18.32
2022-09-26T14:32:36.532Z,19.29
2022-09-26T14:42:09.416Z,19.38
2022-09-26T14:51:45.597Z,19.86
2022-09-26T15:00:58.643Z,17.08
2022-09-26T15:10:32.917Z,17.29
2022-09-26T15:20:05.773Z,16.64
2022-09-26T15:29:35.368Z,15.9
2022-09-26T15:39:07.634Z,15.09
2022-09-26T15:48:43.143Z,14.5
2022-09-26T15:58:19.081Z,14.26
2022-09-26T16:07:54.732Z,14.03
2022-09-26T16:17:30.802Z,13.85
2022-09-26T16:27:07.415Z,13.63
2022-09-26T16:36:43.765Z,13.53
2022-09-26T16:46:20.725Z,13.39
2022-09-26T16:55:57.097Z,13.22
2022-09-26T17:05:33.816Z,13.06
2022-09-26T17:15:10.362Z,12.89
2022-09-26T17:24:47.043Z,12.8
2022-09-26T17:34:23.797Z,12.62
2022-09-26T17:43:59.866Z,12.43
2022-09-26T17:53:36.533Z,12.41
2022-09-26T18:03:15.653Z,12.14
2022-09-26T18:12:49.249Z,12.02
2022-09-26T18:22:26.477Z,11.88
2022-09-26T18:32:03.435Z,11.88
2022-09-26T18:41:39.674Z,11.71
2022-09-26T18:51:16.393Z,11.5
2022-09-26T19:00:53.063Z,11.47
2022-09-26T19:10:29.946Z,11.39
2022-09-26T19:20:06.664Z,11.41
2022-09-26T19:29:43.447Z,11.38
2022-09-26T19:39:20.680Z,11.43
2022-09-26T19:58:34.867Z,11.39
2022-09-26T20:08:11.865Z,11.35
2022-09-26T20:17:49.039Z,11.17
2022-09-26T20:27:28.045Z,11.11
2022-09-26T20:37:04.002Z,11.1
2022-09-26T20:46:41.167Z,11.17
2022-09-26T20:56:18.016Z,11.18
2022-09-26T21:05:55.181Z,11.16
2022-09-26T21:15:32.642Z,11.27
2022-09-26T21:25:10.199Z,11.37
2022-09-26T21:34:47.283Z,11.32
2022-09-26T21:44:24.208Z,11.25
2022-09-26T21:54:00.855Z,11.32
2022-09-26T22:03:37.952Z,11.31
2022-09-26T22:13:15.181Z,11.41
2022-09-26T22:22:52.191Z,11.38
2022-09-26T22:32:29.474Z,11.43
2022-09-26T22:42:06.786Z,11.46
2022-09-26T22:51:43.732Z,11.5
2022-09-26T23:01:21.315Z,11.57
2022-09-26T23:10:58.531Z,11.55
2022-09-26T23:20:35.755Z,11.59
2022-09-26T23:30:13.200Z,11.56
2022-09-26T23:39:52.782Z,11.56
2022-09-26T23:49:28.644Z,11.54
2022-09-26T23:59:05.223Z,11.36
